Time;durP1;ratioP1;P1;durP2;ratioP2;P2;SDS_P1;SDS_P2;PMS_P1;PMS_P2;Temp;Humidity;BMP_temperature;BMP_pressure;BME280_temperature;BME280_humidity;BME280_pressure;Samples;Min_cycle;Max_cycle;Signal;HPM_P1;HPM_P2
2022/01/29 00:01:52;;;;;;;27.00;8.32;;;;;;;-1.30;71.93;99502.63;5110447;28;20044;-72
2022/01/29 00:04:17;;;;;;;31.25;9.15;;;;;;;-1.32;71.84;99510.88;5110420;28;20076;-73
2022/01/29 00:06:44;;;;;;;23.55;7.03;;;;;;;-1.31;71.93;99507.16;5110278;28;20489;-74
2022/01/29 00:09:13;;;;;;;22.13;5.93;;;;;;;-1.38;71.94;99508.97;5110081;28;20368;-72
2022/01/29 00:11:39;;;;;;;11.55;4.13;;;;;;;-1.48;71.90;99511.16;5109948;28;20023;-73
2022/01/29 00:14:08;;;;;;;12.10;3.60;;;;;;;-1.56;71.97;99509.41;5091961;28;20028;-75
2022/01/29 00:16:34;;;;;;;9.27;4.18;;;;;;;-1.65;72.08;99517.63;5109089;28;20036;-73
2022/01/29 00:18:59;;;;;;;8.60;3.42;;;;;;;-1.71;72.07;99520.22;5108726;28;20109;-76
2022/01/29 00:21:25;;;;;;;10.48;3.95;;;;;;;-1.80;72.48;99514.94;5108652;28;20099;-76
2022/01/29 00:23:52;;;;;;;8.25;3.63;;;;;;;-1.83;72.25;99512.63;5109022;28;20424;-74
2022/01/29 00:26:21;;;;;;;8.85;3.90;;;;;;;-1.86;72.80;99515.72;5108722;28;20034;-72
2022/01/29 00:28:47;;;;;;;12.60;4.20;;;;;;;-1.86;72.91;99517.56;5092841;28;20030;-73
2022/01/29 00:31:12;;;;;;;10.52;4.00;;;;;;;-1.89;72.74;99518.78;5112399;28;20019;-72
2022/01/29 00:33:38;;;;;;;8.13;3.47;;;;;;;-1.90;72.61;99514.44;5112612;28;20156;-72
2022/01/29 00:36:04;;;;;;;8.55;3.60;;;;;;;-1.94;73.06;99526.59;5112223;28;20202;-73
2022/01/29 00:38:30;;;;;;;9.52;3.08;;;;;;;-1.95;72.79;99524.91;5112296;28;20533;-74
2022/01/29 00:40:55;;;;;;;9.98;3.75;;;;;;;-1.99;73.13;99524.44;5112423;28;20055;-73
2022/01/29 00:43:21;;;;;;;12.13;4.03;;;;;;;-1.99;73.01;99531.69;5112015;28;20046;-72
2022/01/29 00:45:46;;;;;;;8.90;3.75;;;;;;;-2.00;73.49;99533.53;5112963;28;20102;-73
2022/01/29 00:48:12;;;;;;;14.18;4.22;;;;;;;-2.06;72.72;99533.47;5113497;28;20491;-77
2022/01/29 00:50:37;;;;;;;10.57;4.40;;;;;;;-2.14;73.15;99529.03;5093451;28;20536;-75
2022/01/29 00:53:03;;;;;;;13.55;4.57;;;;;;;-2.17;73.08;99515.97;5112751;28;20028;-72
2022/01/29 00:55:28;;;;;;;9.27;3.92;;;;;;;-2.14;73.30;99515.59;5113316;28;20027;-72
2022/01/29 00:57:54;;;;;;;9.27;4.00;;;;;;;-2.17;73.52;99510.59;5113214;28;20019;-75
2022/01/29 01:00:19;;;;;;;11.20;4.22;;;;;;;-2.22;73.29;99511.13;5113247;28;20032;-73
2022/01/29 01:02:47;;;;;;;10.63;3.67;;;;;;;-2.22;73.76;99507.63;5113726;28;20023;-71
2022/01/29 01:05:13;;;;;;;7.53;3.17;;;;;;;-2.19;73.44;99509.94;5113165;28;20023;-74
2022/01/29 01:07:39;;;;;;;9.75;4.00;;;;;;;-2.14;73.65;99510.22;5093981;28;20047;-71
2022/01/29 01:10:06;;;;;;;10.52;3.72;;;;;;;-2.17;73.48;99506.03;5112652;28;20063;-71
2022/01/29 01:12:32;;;;;;;9.73;4.10;;;;;;;-2.20;73.52;99511.78;5113178;28;20453;-75
2022/01/29 01:14:57;;;;;;;8.75;3.40;;;;;;;-2.21;73.50;99517.34;5113282;28;20102;-76
2022/01/29 01:17:23;;;;;;;8.02;3.00;;;;;;;-2.24;73.50;99523.91;5091778;28;20107;-72
2022/01/29 01:19:48;;;;;;;8.30;3.33;;;;;;;-2.27;73.93;99533.19;5113040;28;20111;-72
2022/01/29 01:22:15;;;;;;;8.98;3.35;;;;;;;-2.32;73.72;99532.09;5113037;28;20433;-73
2022/01/29 01:24:40;;;;;;;9.02;3.35;;;;;;;-2.40;74.17;99525.78;5112977;28;20034;-71
2022/01/29 01:27:06;;;;;;;11.35;3.67;;;;;;;-2.43;74.29;99536.06;5112547;28;20028;-73
2022/01/29 01:29:31;;;;;;;8.35;3.22;;;;;;;-2.45;74.74;99528.19;5112432;28;20028;-74
2022/01/29 01:31:57;;;;;;;10.38;3.85;;;;;;;-2.43;74.74;99518.09;5092733;28;20024;-73
2022/01/29 01:34:24;;;;;;;12.82;3.40;;;;;;;-2.41;74.80;99525.97;5112941;28;20051;-75
2022/01/29 01:36:57;;;;;;;12.50;3.70;;;;;;;-2.44;75.04;99527.19;5112419;28;20039;-73
2022/01/29 01:39:28;;;;;;;8.25;3.72;;;;;;;-2.46;75.03;99533.75;5111930;28;20031;-73
2022/01/29 01:41:59;;;;;;;10.13;3.88;;;;;;;-2.48;75.13;99528.56;5112794;28;20391;-73
2022/01/29 01:44:24;;;;;;;11.48;4.20;;;;;;;-2.48;75.66;99525.88;5110706;28;20051;-76
2022/01/29 01:46:50;;;;;;;13.80;3.72;;;;;;;-2.49;74.98;99529.56;5112473;28;20020;-74
2022/01/29 01:49:16;;;;;;;8.95;3.60;;;;;;;-2.48;75.14;99527.75;5112383;28;20451;-73
2022/01/29 01:51:43;;;;;;;8.70;3.55;;;;;;;-2.48;75.41;99527.75;5112055;28;20028;-74
2022/01/29 01:54:09;;;;;;;12.15;3.40;;;;;;;-2.50;75.60;99527.91;5108197;28;20040;-74
2022/01/29 01:56:34;;;;;;;12.20;3.92;;;;;;;-2.52;75.70;99521.88;5109666;27;20020;-75
2022/01/29 01:59:00;;;;;;;13.02;3.90;;;;;;;-2.58;75.79;99531.53;5093728;28;20024;-73
2022/01/29 02:01:26;;;;;;;13.00;3.90;;;;;;;-2.62;75.64;99524.84;5113290;28;20027;-72
2022/01/29 02:03:51;;;;;;;9.93;3.88;;;;;;;-2.63;75.51;99519.66;5112010;28;20387;-73
2022/01/29 02:06:19;;;;;;;9.75;4.00;;;;;;;-2.63;75.28;99523.19;5110682;28;20028;-73
2022/01/29 02:08:44;;;;;;;10.35;3.80;;;;;;;-2.67;75.39;99519.19;5110991;28;20035;-74
2022/01/29 02:11:10;;;;;;;9.98;3.70;;;;;;;-2.70;75.76;99523.09;5111779;28;20027;-72
2022/01/29 02:13:36;;;;;;;10.98;4.00;;;;;;;-2.72;75.68;99532.34;5091415;28;20035;-71
2022/01/29 02:16:02;;;;;;;10.43;4.18;;;;;;;-2.79;76.08;99516.13;5092280;28;20114;-71
2022/01/29 02:18:28;;;;;;;9.23;3.30;;;;;;;-2.82;75.97;99524.53;5110161;28;20027;-71
2022/01/29 02:20:54;;;;;;;11.55;3.50;;;;;;;-2.86;76.25;99518.72;5091218;28;20028;-71
2022/01/29 02:23:22;;;;;;;8.18;3.75;;;;;;;-2.89;76.22;99507.50;5110060;28;20421;-72
2022/01/29 02:25:50;;;;;;;11.57;3.67;;;;;;;-2.92;76.30;99508.72;5107347;28;20030;-71
2022/01/29 02:28:18;;;;;;;9.85;3.45;;;;;;;-2.94;76.48;99505.38;5091849;28;20051;-71
2022/01/29 02:30:47;;;;;;;15.13;5.45;;;;;;;-2.93;76.34;99498.97;5110331;28;20027;-71
2022/01/29 02:33:14;;;;;;;9.73;3.37;;;;;;;-2.94;76.56;99494.63;5108880;28;20019;-71
2022/01/29 02:35:49;;;;;;;9.23;3.85;;;;;;;-2.95;76.54;99492.97;5110524;28;20065;-71
2022/01/29 02:38:17;;;;;;;11.05;3.55;;;;;;;-2.96;76.81;99493.97;5089833;28;20034;-71
2022/01/29 02:40:48;;;;;;;7.82;3.45;;;;;;;-2.96;76.28;99495.81;5109302;28;20471;-72
2022/01/29 02:43:18;;;;;;;8.20;2.85;;;;;;;-2.99;76.77;99489.78;5108280;28;20039;-72
2022/01/29 02:45:44;;;;;;;;;;;;;;;-2.97;76.57;99483.41;5110207;28;20027;-71
2022/01/29 02:48:11;;;;;;;8.63;3.58;;;;;;;-3.00;76.75;99474.69;5109968;28;19922;-72
2022/01/29 02:50:37;;;;;;;11.18;3.40;;;;;;;-3.00;76.77;99471.19;5108289;28;20392;-71
2022/01/29 02:53:03;;;;;;;12.35;4.97;;;;;;;-3.01;76.65;99467.66;5109145;28;20027;-71
2022/01/29 02:55:29;;;;;;;12.35;5.10;;;;;;;-3.01;76.60;99470.34;5110610;28;20028;-71
2022/01/29 02:57:55;;;;;;;11.32;4.90;;;;;;;-2.99;76.58;99464.81;5109328;28;20060;-71
2022/01/29 03:00:21;;;;;;;10.40;4.03;;;;;;;-2.99;76.47;99465.63;5109573;28;20024;-71
2022/01/29 03:02:46;;;;;;;9.32;3.38;;;;;;;-2.95;77.14;99459.91;5110102;28;20027;-71
2022/01/29 03:05:12;;;;;;;15.85;4.18;;;;;;;-2.94;76.75;99457.06;5091148;28;20574;-72
2022/01/29 03:07:38;;;;;;;14.13;4.88;;;;;;;-2.91;76.58;99461.22;5109621;28;20496;-72
2022/01/29 03:10:05;;;;;;;13.27;4.82;;;;;;;-2.88;76.37;99450.94;5109387;28;20122;-71
2022/01/29 03:12:30;;;;;;;13.95;5.78;;;;;;;-2.86;76.96;99451.59;5109578;28;20092;-70
2022/01/29 03:14:55;;;;;;;16.55;6.53;;;;;;;-2.85;76.37;99458.59;5091661;28;20448;-71
2022/01/29 03:17:21;;;;;;;15.32;5.43;;;;;;;-2.84;76.63;99452.22;5109672;28;20064;-71
2022/01/29 03:19:46;;;;;;;12.43;5.20;;;;;;;-2.84;76.70;99449.53;5109277;28;20771;-71
2022/01/29 03:22:12;;;;;;;11.77;4.25;;;;;;;-2.80;76.66;99451.84;5090253;28;20023;-71
2022/01/29 03:24:37;;;;;;;14.13;5.30;;;;;;;-2.79;76.89;99446.31;5109856;28;20518;-69
2022/01/29 03:27:03;;;;;;;16.00;5.55;;;;;;;-2.77;76.72;99448.81;5109475;28;20049;-68
2022/01/29 03:29:28;;;;;;;30.58;11.50;;;;;;;-2.77;76.93;99435.38;5090410;28;20054;-70
2022/01/29 03:31:54;;;;;;;57.78;19.88;;;;;;;-2.76;76.64;99435.22;5109600;28;20491;-70
2022/01/29 03:34:19;;;;;;;35.30;14.82;;;;;;;-2.78;76.87;99442.63;5109552;28;20016;-71
2022/01/29 03:36:45;;;;;;;44.60;16.55;;;;;;;-2.80;76.55;99441.97;5109097;28;20059;-69
2022/01/29 03:39:10;;;;;;;37.45;14.27;;;;;;;-2.81;76.76;99442.13;5108063;28;20027;-69
2022/01/29 03:41:37;;;;;;;28.70;13.23;;;;;;;-2.80;76.75;99441.13;5108580;28;20024;-69
2022/01/29 03:44:05;;;;;;;30.75;14.27;;;;;;;-2.80;76.42;99441.97;5109464;28;20075;-70
2022/01/29 03:46:32;;;;;;;35.50;16.42;;;;;;;-2.80;76.65;99439.28;5109451;28;20434;-69
2022/01/29 03:48:58;;;;;;;29.67;13.88;;;;;;;-2.80;76.51;99431.22;5109265;28;20023;-69
2022/01/29 03:51:23;;;;;;;20.63;8.77;;;;;;;-2.78;76.43;99431.03;5109713;28;20024;-69
2022/01/29 03:53:49;;;;;;;16.85;7.88;;;;;;;-2.80;76.47;99430.38;5109417;28;20504;-69
2022/01/29 03:56:15;;;;;;;20.45;9.15;;;;;;;-2.82;76.63;99421.66;5109857;28;20027;-70
2022/01/29 03:58:40;;;;;;;16.70;7.70;;;;;;;-2.85;76.70;99421.03;5108278;28;20024;-70
2022/01/29 04:01:05;;;;;;;15.98;8.25;;;;;;;-2.88;76.84;99417.88;5108939;28;20027;-70
2022/01/29 04:03:32;;;;;;;18.73;10.23;;;;;;;-2.91;76.79;99408.38;5111223;28;20024;-70
2022/01/29 04:05:58;;;;;;;28.85;13.10;;;;;;;-2.93;76.74;99409.56;5094153;28;20487;-69
2022/01/29 04:08:24;;;;;;;41.67;15.32;;;;;;;-2.99;76.67;99420.00;5112019;28;20028;-69
2022/01/29 04:10:51;;;;;;;24.95;10.63;;;;;;;-3.01;76.58;99411.28;5112975;28;20153;-69
2022/01/29 04:13:21;;;;;;;22.73;8.82;;;;;;;-3.06;76.65;99396.78;5113400;28;20020;-69
2022/01/29 04:15:46;;;;;;;34.60;12.20;;;;;;;-3.08;76.77;99396.13;5114769;28;20461;-70
2022/01/29 04:18:12;;;;;;;29.77;11.90;;;;;;;-3.10;76.72;99400.84;5114226;28;20110;-69
2022/01/29 04:20:37;;;;;;;25.90;9.68;;;;;;;-3.12;76.98;99401.03;5113907;28;20110;-69
2022/01/29 04:23:06;;;;;;;72.20;20.45;;;;;;;-3.15;76.75;99401.41;5114033;28;20020;-69
2022/01/29 04:25:32;;;;;;;103.23;26.10;;;;;;;-3.17;77.03;99411.50;5114307;28;20030;-69
2022/01/29 04:27:57;;;;;;;49.70;16.30;;;;;;;-3.18;76.90;99409.81;5113812;28;20028;-69
2022/01/29 04:30:31;;;;;;;28.42;11.82;;;;;;;-3.19;76.75;99405.47;5113576;28;20027;-69
2022/01/29 04:35:42;;;;;;;54.38;14.75;;;;;;;-3.20;76.58;99401.13;5114258;28;20055;-70
2022/01/29 04:38:08;;;;;;;82.10;17.80;;;;;;;-3.18;76.70;99399.91;5114073;28;20043;-69
2022/01/29 04:40:35;;;;;;;77.97;19.15;;;;;;;-3.18;76.83;99388.34;5113629;28;20020;-70
2022/01/29 04:43:04;;;;;;;31.63;11.23;;;;;;;-3.16;76.97;99386.31;5093430;28;20036;-69
2022/01/29 04:45:29;;;;;;;43.70;16.83;;;;;;;-3.15;76.74;99383.44;5113757;28;20034;-69
2022/01/29 04:47:55;;;;;;;47.30;16.98;;;;;;;-3.16;77.16;99368.34;5113349;28;20024;-69
2022/01/29 04:50:20;;;;;;;26.00;10.85;;;;;;;-3.15;76.86;99363.84;5112840;28;20031;-69
2022/01/29 04:52:46;;;;;;;72.05;26.52;;;;;;;-3.18;77.00;99373.06;5113763;28;20414;-70
2022/01/29 04:55:12;;;;;;;135.85;42.75;;;;;;;-3.16;76.80;99368.34;5113631;28;20038;-70
2022/01/29 04:57:39;;;;;;;35.15;15.45;;;;;;;-3.13;76.33;99372.53;5113673;28;20049;-69
2022/01/29 05:00:09;;;;;;;36.92;15.40;;;;;;;-3.06;77.00;99372.63;5113132;28;20114;-70
2022/01/29 05:02:35;;;;;;;26.83;12.60;;;;;;;-3.02;76.78;99364.00;5093647;28;20027;-69
2022/01/29 05:05:00;;;;;;;24.48;9.55;;;;;;;-2.95;76.92;99369.47;5113408;28;20069;-69
2022/01/29 05:07:26;;;;;;;31.15;10.73;;;;;;;-2.87;77.02;99369.41;5092515;28;20027;-69
2022/01/29 05:09:51;;;;;;;29.30;10.48;;;;;;;-2.78;77.08;99372.81;5112592;28;20122;-69
2022/01/29 05:12:23;;;;;;;21.83;9.82;;;;;;;-2.71;77.03;99371.03;5093787;28;20023;-70
2022/01/29 05:15:36;;;;;;;25.30;9.68;;;;;;;-2.65;77.10;99366.75;5112296;28;20110;-69
2022/01/29 05:28:33;;;;;;;27.63;11.75;;;;;;;-2.42;76.52;99373.84;5109908;28;20589;-71
2022/01/29 05:30:59;;;;;;;54.03;17.25;;;;;;;-2.43;76.12;99366.78;5092412;28;20055;-71
2022/01/29 05:33:24;;;;;;;22.08;10.32;;;;;;;-2.41;76.46;99370.13;5111104;28;20261;-70
2022/01/29 05:35:50;;;;;;;29.48;11.80;;;;;;;-2.42;76.14;99371.16;5111305;28;20024;-71
2022/01/29 05:38:15;;;;;;;31.63;13.18;;;;;;;-2.42;76.07;99373.84;5110880;28;20023;-71
2022/01/29 05:40:40;;;;;;;31.05;12.43;;;;;;;-2.43;75.88;99375.72;5110837;28;20027;-72
2022/01/29 05:43:06;;;;;;;30.50;11.93;;;;;;;-2.43;76.07;99370.34;5113389;27;20492;-72
2022/01/29 05:45:31;;;;;;;24.55;10.90;;;;;;;-2.44;75.77;99354.38;5111600;27;20484;-73
2022/01/29 05:47:57;;;;;;;23.52;10.20;;;;;;;-2.45;75.95;99355.44;5111370;28;20020;-72
2022/01/29 05:50:22;;;;;;;30.67;11.40;;;;;;;-2.49;75.78;99354.97;5110785;28;20383;-72
2022/01/29 05:52:47;;;;;;;40.78;15.13;;;;;;;-2.58;75.85;99362.31;5111031;28;20051;-72
2022/01/29 05:55:13;;;;;;;49.50;19.83;;;;;;;-2.66;75.47;99362.41;5093059;28;20469;-71
2022/01/29 05:57:38;;;;;;;35.25;14.52;;;;;;;-2.76;75.29;99351.97;5112788;27;20028;-71
2022/01/29 06:00:05;;;;;;;30.52;11.05;;;;;;;-2.84;75.26;99341.31;5110677;28;20023;-72
2022/01/29 06:02:30;;;;;;;35.20;12.40;;;;;;;-2.92;75.36;99336.06;5111507;28;20027;-72
2022/01/29 06:04:56;;;;;;;27.58;11.00;;;;;;;-2.98;75.51;99337.66;5093541;28;20030;-72
2022/01/29 06:07:21;;;;;;;27.90;11.60;;;;;;;-3.05;75.48;99337.53;5111161;28;20019;-72
2022/01/29 06:09:48;;;;;;;26.17;10.63;;;;;;;-3.09;75.43;99341.63;5110992;28;20046;-71
2022/01/29 06:12:13;;;;;;;26.52;11.15;;;;;;;-3.14;75.92;99349.41;5110700;28;20108;-72
2022/01/29 06:14:39;;;;;;;33.17;12.98;;;;;;;-3.18;75.59;99346.25;5110911;28;20470;-72
2022/01/29 06:17:05;;;;;;;30.70;11.55;;;;;;;-3.20;75.45;99348.28;5110983;28;20024;-73
2022/01/29 06:19:30;;;;;;;32.10;12.00;;;;;;;-3.24;75.51;99340.78;5111050;28;20092;-72
2022/01/29 06:21:55;;;;;;;30.83;12.07;;;;;;;-3.28;76.03;99332.28;5110914;28;20028;-72
2022/01/29 06:24:22;;;;;;;28.55;12.55;;;;;;;-3.30;75.70;99334.31;5111171;28;20047;-71
2022/01/29 06:26:47;;;;;;;28.52;11.60;;;;;;;-3.31;75.89;99333.47;5110833;28;20046;-72
2022/01/29 06:29:13;;;;;;;32.10;12.32;;;;;;;-3.33;75.88;99324.78;5110773;28;20141;-72
2022/01/29 06:31:38;;;;;;;35.47;13.80;;;;;;;-3.34;75.73;99320.44;5110877;28;20036;-71
2022/01/29 06:34:03;;;;;;;30.13;11.63;;;;;;;-3.32;75.54;99322.94;5110761;28;20045;-71
2022/01/29 06:36:29;;;;;;;22.70;10.07;;;;;;;-3.33;75.81;99315.91;5110942;28;20034;-72
2022/01/29 06:38:54;;;;;;;31.63;13.30;;;;;;;-3.32;75.85;99315.72;5110333;28;20028;-72
2022/01/29 06:41:19;;;;;;;35.47;19.38;;;;;;;-3.30;75.57;99323.59;5111048;28;20019;-72
2022/01/29 06:43:45;;;;;;;39.65;22.90;;;;;;;-3.28;75.53;99313.50;5110703;28;20047;-73
2022/01/29 06:46:10;;;;;;;40.72;17.80;;;;;;;-3.25;75.45;99313.09;5110767;28;20028;-72
2022/01/29 06:48:36;;;;;;;31.95;14.57;;;;;;;-3.23;75.48;99307.56;5109999;28;20055;-72
2022/01/29 06:51:01;;;;;;;27.55;12.43;;;;;;;-3.22;75.10;99293.16;5091914;28;20027;-72
2022/01/29 06:53:27;;;;;;;27.92;13.07;;;;;;;-3.22;75.14;99310.06;5110349;28;20024;-72
2022/01/29 06:55:52;;;;;;;34.03;15.85;;;;;;;-3.19;75.50;99308.88;5110082;28;20024;-72
2022/01/29 06:58:18;;;;;;;40.67;17.80;;;;;;;-3.17;75.56;99304.16;5091389;28;20441;-73
2022/01/29 07:00:43;;;;;;;42.65;18.25;;;;;;;-3.17;74.78;99302.28;5091168;28;20035;-73
2022/01/29 07:03:08;;;;;;;36.92;15.43;;;;;;;-3.18;75.16;99300.63;5109826;28;20532;-73
2022/01/29 07:05:34;;;;;;;27.55;12.00;;;;;;;-3.17;74.75;99294.25;5109747;28;20080;-73
2022/01/29 07:07:59;;;;;;;29.30;12.52;;;;;;;-3.16;75.04;99297.78;5091312;28;20034;-74
2022/01/29 07:10:26;;;;;;;27.08;11.15;;;;;;;-3.12;75.21;99287.47;5109694;28;20481;-74
2022/01/29 07:12:51;;;;;;;26.90;11.70;;;;;;;-3.10;74.63;99290.81;5091434;28;20084;-73
2022/01/29 07:15:17;;;;;;;34.83;13.75;;;;;;;-3.06;75.04;99289.44;5109859;28;20035;-73
2022/01/29 07:17:42;;;;;;;38.17;14.60;;;;;;;-3.04;74.68;99290.06;5109910;28;20028;-73
2022/01/29 07:20:08;;;;;;;48.17;21.40;;;;;;;-3.03;74.66;99272.94;5109207;28;20023;-73
2022/01/29 07:22:34;;;;;;;44.95;24.25;;;;;;;-2.98;74.35;99267.84;5109712;28;20024;-74
2022/01/29 07:24:59;;;;;;;34.25;15.40;;;;;;;-2.93;74.57;99260.06;5111019;28;20026;-74
2022/01/29 07:27:24;;;;;;;40.60;18.33;;;;;;;-2.88;74.57;99246.06;5109219;28;20480;-73
2022/01/29 07:29:50;;;;;;;70.13;29.63;;;;;;;-2.84;74.20;99247.38;5108995;28;20058;-73
2022/01/29 07:32:15;;;;;;;152.75;47.00;;;;;;;-2.78;74.53;99254.66;5109403;28;20024;-74
2022/01/29 07:34:41;;;;;;;152.55;41.75;;;;;;;-2.73;74.49;99246.03;5091634;28;20483;-74
2022/01/29 07:37:06;;;;;;;106.22;32.42;;;;;;;-2.65;74.40;99240.53;5109476;28;20080;-74
2022/01/29 07:39:33;;;;;;;93.55;32.10;;;;;;;-2.57;74.40;99239.56;5113278;28;20028;-73
2022/01/29 07:41:58;;;;;;;121.22;42.42;;;;;;;-2.46;74.50;99244.44;5113334;28;20794;-73
2022/01/29 07:44:25;;;;;;;129.02;44.90;;;;;;;-2.35;73.93;99235.03;5113255;28;20118;-74
2022/01/29 07:46:51;;;;;;;106.60;38.67;;;;;;;-2.20;74.17;99247.56;5095325;28;20035;-74
2022/01/29 07:49:17;;;;;;;80.25;30.15;;;;;;;-2.05;73.97;99245.66;5112985;28;20024;-73
2022/01/29 07:51:42;;;;;;;65.22;24.75;;;;;;;-1.90;74.04;99248.25;5113658;28;20043;-74
2022/01/29 07:54:08;;;;;;;62.83;23.33;;;;;;;-1.69;74.68;99241.13;5113545;28;20471;-74
2022/01/29 07:56:34;;;;;;;52.70;20.33;;;;;;;-1.53;74.43;99234.59;5094421;28;20024;-73
2022/01/29 07:58:59;;;;;;;50.17;18.60;;;;;;;-1.37;73.76;99236.13;5113128;28;20015;-73
2022/01/29 08:01:25;;;;;;;52.70;18.73;;;;;;;-1.24;73.93;99232.69;5095047;28;20047;-73
2022/01/29 08:03:52;;;;;;;52.63;18.65;;;;;;;-1.15;73.75;99227.97;5095111;28;20027;-73
2022/01/29 08:06:19;;;;;;;39.05;14.82;;;;;;;-1.07;73.12;99225.94;5113481;28;20099;-72
2022/01/29 08:08:45;;;;;;;41.47;15.63;;;;;;;-1.03;73.05;99215.59;5094273;28;20031;-73
2022/01/29 08:11:13;;;;;;;29.45;11.95;;;;;;;-0.98;72.53;99206.91;5095145;28;20020;-73
2022/01/29 08:13:39;;;;;;;30.75;13.50;;;;;;;-0.93;72.81;99216.03;5094543;28;20043;-73
2022/01/29 08:16:05;;;;;;;30.95;13.00;;;;;;;-0.84;73.00;99213.16;5113066;28;20030;-73
2022/01/29 08:18:30;;;;;;;30.80;14.85;;;;;;;-0.69;73.28;99208.44;5113066;28;20084;-73
2022/01/29 08:20:56;;;;;;;25.85;9.95;;;;;;;-0.57;73.55;99197.88;5112932;28;20463;-73
2022/01/29 08:23:22;;;;;;;25.75;11.73;;;;;;;-0.48;73.24;99204.75;5113136;28;20098;-73
2022/01/29 08:25:48;;;;;;;30.00;12.18;;;;;;;-0.41;72.21;99190.44;5113216;28;20099;-73
2022/01/29 08:28:13;;;;;;;24.20;10.02;;;;;;;-0.37;72.63;99197.91;5112631;28;20019;-73
2022/01/29 08:30:39;;;;;;;25.85;9.80;;;;;;;-0.30;72.41;99189.81;5111816;28;20046;-73
2022/01/29 08:33:06;;;;;;;23.02;9.40;;;;;;;-0.22;72.60;99192.31;5112567;28;20028;-73
2022/01/29 08:35:32;;;;;;;23.30;9.45;;;;;;;-0.17;72.24;99180.88;5112563;28;20055;-73
2022/01/29 08:37:58;;;;;;;24.23;10.43;;;;;;;-0.14;72.36;99179.66;5094116;28;20023;-73
2022/01/29 08:40:24;;;;;;;20.95;9.27;;;;;;;-0.08;72.52;99181.53;5112205;28;20019;-73
2022/01/29 08:42:50;;;;;;;23.90;9.23;;;;;;;-0.05;71.15;99178.41;5112175;28;20411;-73
2022/01/29 08:45:16;;;;;;;25.13;10.60;;;;;;;-0.06;71.52;99174.06;5094160;28;20019;-73
2022/01/29 08:47:44;;;;;;;30.67;12.30;;;;;;;-0.05;71.98;99164.94;5093094;28;20109;-73
2022/01/29 08:50:11;;;;;;;31.83;12.82;;;;;;;-0.03;71.27;99171.75;5093695;28;20168;-72
2022/01/29 08:52:38;;;;;;;29.63;12.38;;;;;;;0.01;71.30;99166.75;5113075;28;20108;-72
2022/01/29 08:55:05;;;;;;;56.42;24.73;;;;;;;0.03;71.36;99158.47;5112528;28;20032;-73
2022/01/29 08:57:31;;;;;;;119.63;31.45;;;;;;;0.06;71.59;99149.97;5112312;28;20027;-72
2022/01/29 08:59:56;;;;;;;81.07;24.85;;;;;;;0.13;72.11;99143.50;5111818;28;20027;-72
2022/01/29 09:02:22;;;;;;;125.05;34.28;;;;;;;0.24;71.42;99150.13;5092846;28;20059;-72
2022/01/29 09:04:48;;;;;;;87.25;26.15;;;;;;;0.32;70.94;99142.84;5110750;28;20027;-71
2022/01/29 09:07:13;;;;;;;85.13;25.05;;;;;;;0.37;71.02;99133.09;5112414;28;20099;-71
2022/01/29 09:09:43;;;;;;;82.43;24.45;;;;;;;0.48;70.94;99136.13;5111836;28;20045;-70
2022/01/29 09:12:09;;;;;;;76.20;25.00;;;;;;;0.54;70.45;99141.53;5112258;28;20080;-69
2022/01/29 09:14:35;;;;;;;69.63;21.60;;;;;;;0.57;70.42;99134.88;5111875;28;20100;-70
2022/01/29 09:17:00;;;;;;;51.47;17.38;;;;;;;0.66;70.41;99136.28;5111585;28;20467;-71
2022/01/29 09:19:26;;;;;;;57.33;18.00;;;;;;;0.75;70.80;99139.56;5111690;28;20019;-71
2022/01/29 09:21:51;;;;;;;41.55;13.57;;;;;;;0.77;71.11;99140.19;5093823;28;20024;-71
2022/01/29 09:24:16;;;;;;;35.75;12.35;;;;;;;0.79;70.82;99126.47;5111354;28;20023;-70
2022/01/29 09:26:42;;;;;;;41.85;16.75;;;;;;;0.77;71.21;99131.25;5110980;28;20041;-70
2022/01/29 09:29:07;;;;;;;37.95;13.68;;;;;;;0.74;71.35;99124.41;5111461;28;20073;-69
2022/01/29 09:31:33;;;;;;;30.08;12.35;;;;;;;0.70;71.07;99115.06;5110828;28;20027;-71
2022/01/29 09:33:58;;;;;;;32.00;12.63;;;;;;;0.68;71.07;99117.16;5092946;28;20074;-74
2022/01/29 09:36:24;;;;;;;26.75;11.93;;;;;;;0.66;70.58;99119.25;5109577;27;20016;-70
2022/01/29 09:38:49;;;;;;;32.90;12.68;;;;;;;0.64;71.62;99114.06;5110760;28;20375;-70
2022/01/29 09:41:16;;;;;;;28.48;12.40;;;;;;;0.70;70.89;99109.66;5111371;28;20031;-70
2022/01/29 09:43:43;;;;;;;30.33;15.75;;;;;;;0.74;71.78;99119.00;5110803;28;20032;-71
2022/01/29 09:46:10;;;;;;;27.58;12.65;;;;;;;0.82;71.31;99109.81;5110686;28;20069;-71
2022/01/29 09:48:36;;;;;;;26.10;11.60;;;;;;;0.85;71.32;99099.41;5110291;28;20566;-71
2022/01/29 09:51:01;;;;;;;23.17;9.82;;;;;;;0.86;71.65;99095.69;5110619;28;20068;-70
2022/01/29 09:53:27;;;;;;;88.10;26.80;;;;;;;0.93;71.51;99097.50;5111426;28;20031;-73
2022/01/29 09:55:52;;;;;;;67.80;21.88;;;;;;;0.99;72.07;99091.25;5110999;28;20032;-74
2022/01/29 09:58:18;;;;;;;56.92;16.83;;;;;;;1.00;71.05;99079.41;5110720;28;20404;-73
2022/01/29 10:00:44;;;;;;;33.88;12.63;;;;;;;1.04;71.34;99078.72;5091687;28;20031;-73
2022/01/29 10:03:10;;;;;;;62.08;18.95;;;;;;;1.13;71.27;99064.97;5110869;28;20036;-73
2022/01/29 10:05:36;;;;;;;87.30;25.10;;;;;;;1.17;71.94;99061.59;5110824;28;20026;-74
2022/01/29 10:08:02;;;;;;;63.95;18.92;;;;;;;1.23;71.75;99064.47;5110698;28;20020;-74
2022/01/29 10:10:27;;;;;;;52.05;16.95;;;;;;;1.27;70.61;99049.47;5092509;28;20256;-73
2022/01/29 10:12:52;;;;;;;29.73;11.82;;;;;;;1.33;71.32;99035.88;5111060;28;20031;-75
2022/01/29 10:15:22;;;;;;;61.00;20.42;;;;;;;1.38;70.88;99035.25;5108598;28;20028;-72
2022/01/29 10:17:55;;;;;;;48.53;16.17;;;;;;;1.34;70.48;99025.91;5110696;28;20031;-73
2022/01/29 10:20:26;;;;;;;55.78;19.08;;;;;;;1.33;70.80;99025.06;5107249;28;20505;-76
2022/01/29 10:22:58;;;;;;;91.07;30.15;;;;;;;1.29;71.19;99014.94;5107099;28;20049;-70
2022/01/29 10:25:36;;;;;;;44.03;15.77;;;;;;;1.26;70.55;99010.78;5112112;28;20536;-70
2022/01/29 10:28:15;;;;;;;39.13;15.55;;;;;;;1.24;71.51;99007.47;5111734;28;20451;-72
2022/01/29 10:30:50;;;;;;;40.40;12.80;;;;;;;1.26;70.98;99002.69;5111299;27;20119;-70
2022/01/29 10:33:19;;;;;;;45.42;16.33;;;;;;;1.24;70.75;99018.28;5092953;28;20122;-71
2022/01/29 10:35:53;;;;;;;50.03;15.40;;;;;;;1.22;71.21;99012.31;5110048;28;20164;-72
2022/01/29 10:38:24;;;;;;;38.63;13.70;;;;;;;1.25;71.52;99001.03;5112394;27;20534;-72
2022/01/29 10:41:29;;;;;;;37.80;11.32;;;;;;;1.23;71.42;98996.91;5110074;27;20083;-71
2022/01/29 10:44:18;;;;;;;29.70;10.20;;;;;;;1.23;70.70;98991.50;5109643;28;20595;-70
2022/01/29 10:46:43;;;;;;;36.55;11.80;;;;;;;1.26;71.22;98994.56;5109845;28;20039;-71
2022/01/29 10:49:22;;;;;;;32.25;13.57;;;;;;;1.30;71.45;98987.69;5111259;27;20019;-70
2022/01/29 10:52:05;;;;;;;38.20;14.03;;;;;;;1.32;70.58;98990.19;5111516;28;20080;-70
2022/01/29 10:54:33;;;;;;;37.22;11.95;;;;;;;1.33;70.97;98987.25;5112415;27;20088;-71
2022/01/29 10:56:59;;;;;;;27.40;10.30;;;;;;;1.29;70.96;98986.03;5089986;28;20072;-71
2022/01/29 10:59:27;;;;;;;33.65;12.50;;;;;;;1.33;71.07;98973.72;5110900;28;20060;-71
2022/01/29 11:01:59;;;;;;;22.15;9.23;;;;;;;1.40;70.92;98979.09;5110857;28;20032;-72
2022/01/29 11:04:27;;;;;;;26.05;10.25;;;;;;;1.46;70.66;98972.75;5106355;28;20023;-72
2022/01/29 11:06:55;;;;;;;29.88;11.02;;;;;;;1.54;71.32;98960.84;5110404;28;20020;-70
2022/01/29 11:09:21;;;;;;;25.30;9.98;;;;;;;1.58;70.14;98953.94;5109520;28;20019;-71
2022/01/29 11:11:48;;;;;;;26.05;10.40;;;;;;;1.64;70.68;98953.00;5109223;28;20114;-72
2022/01/29 11:14:17;;;;;;;28.50;9.13;;;;;;;1.66;69.84;98957.38;5109315;28;20027;-70
2022/01/29 11:16:44;;;;;;;23.97;9.57;;;;;;;1.61;70.66;98955.34;5090746;28;20076;-69
2022/01/29 11:19:10;;;;;;;27.90;11.02;;;;;;;1.58;70.93;98943.13;5108317;28;20020;-73
2022/01/29 11:21:36;;;;;;;23.58;10.23;;;;;;;1.56;70.39;98934.41;5109832;28;20023;-71
2022/01/29 11:24:03;;;;;;;28.17;9.95;;;;;;;1.51;70.47;98920.75;5111358;28;20020;-69
2022/01/29 11:26:32;;;;;;;24.75;9.30;;;;;;;1.45;70.38;98919.75;5109406;28;20024;-72
2022/01/29 11:29:25;;;;;;;18.13;8.55;;;;;;;1.42;71.09;98909.41;5109233;28;20494;-71
2022/01/29 11:32:21;;;;;;;22.80;9.30;;;;;;;1.36;71.33;98909.47;5107331;28;20020;-68
2022/01/29 11:35:08;;;;;;;23.33;9.43;;;;;;;1.34;71.67;98893.50;5109028;28;20491;-70
2022/01/29 11:37:41;;;;;;;22.27;8.60;;;;;;;1.26;71.08;98888.38;5108396;28;20167;-68